sensor_id;sensor_type;location;lat;lon;timestamp;pressure;altitude;pressure_sealevel;temperature;humidity
40730;BME280;26418;50.070;8.436;2023-05-12T00:00:48;99732.59;;;12.25;100.00
40730;BME280;26418;50.070;8.436;2023-05-12T00:03:14;99743.78;;;12.33;100.00
40730;BME280;26418;50.070;8.436;2023-05-12T00:05:39;99739.47;;;12.32;100.00
40730;BME280;26418;50.070;8.436;2023-05-12T00:08:05;99735.97;;;12.31;100.00
40730;BME280;26418;50.070;8.436;2023-05-12T00:10:30;99736.75;;;12.32;100.00
40730;BME280;26418;50.070;8.436;2023-05-12T00:12:56;99731.50;;;12.35;100.00
40730;BME280;26418;50.070;8.436;2023-05-12T00:15:22;99730.53;;;12.40;100.00
40730;BME280;26418;50.070;8.436;2023-05-12T00:17:47;99735.00;;;12.36;100.00
40730;BME280;26418;50.070;8.436;2023-05-12T00:20:13;99737.56;;;12.32;100.00
40730;BME280;26418;50.070;8.436;2023-05-12T00:22:40;99728.94;;;12.30;100.00
40730;BME280;26418;50.070;8.436;2023-05-12T00:25:06;99732.75;;;12.29;100.00
40730;BME280;26418;50.070;8.436;2023-05-12T00:27:32;99736.59;;;12.28;100.00
40730;BME280;26418;50.070;8.436;2023-05-12T00:29:57;99739.63;;;12.26;100.00
40730;BME280;26418;50.070;8.436;2023-05-12T00:32:24;99739.13;;;12.24;100.00
40730;BME280;26418;50.070;8.436;2023-05-12T00:34:49;99729.41;;;12.23;100.00
40730;BME280;26418;50.070;8.436;2023-05-12T00:37:17;99741.06;;;12.24;100.00
40730;BME280;26418;50.070;8.436;2023-05-12T00:39:42;99732.94;;;12.24;100.00
40730;BME280;26418;50.070;8.436;2023-05-12T00:42:08;99731.63;;;12.21;100.00
40730;BME280;26418;50.070;8.436;2023-05-12T00:44:36;99727.78;;;12.22;100.00
40730;BME280;26418;50.070;8.436;2023-05-12T00:47:03;99735.94;;;12.22;100.00
40730;BME280;26418;50.070;8.436;2023-05-12T00:49:30;99733.22;;;12.22;100.00
40730;BME280;26418;50.070;8.436;2023-05-12T00:51:57;99730.84;;;12.21;100.00
40730;BME280;26418;50.070;8.436;2023-05-12T00:54:22;99730.84;;;12.21;100.00
40730;BME280;26418;50.070;8.436;2023-05-12T00:56:48;99732.28;;;12.18;100.00
40730;BME280;26418;50.070;8.436;2023-05-12T00:59:14;99727.16;;;12.17;100.00
40730;BME280;26418;50.070;8.436;2023-05-12T01:01:40;99723.97;;;12.15;100.00
40730;BME280;26418;50.070;8.436;2023-05-12T01:04:05;99716.63;;;12.15;100.00
40730;BME280;26418;50.070;8.436;2023-05-12T01:06:37;99719.66;;;12.14;100.00
40730;BME280;26418;50.070;8.436;2023-05-12T01:09:04;99719.97;;;12.12;100.00
40730;BME280;26418;50.070;8.436;2023-05-12T01:11:30;99721.56;;;12.13;100.00
40730;BME280;26418;50.070;8.436;2023-05-12T01:13:55;99717.28;;;12.12;100.00
40730;BME280;26418;50.070;8.436;2023-05-12T01:16:24;99726.34;;;12.16;100.00
40730;BME280;26418;50.070;8.436;2023-05-12T01:18:53;99718.72;;;12.18;100.00
40730;BME280;26418;50.070;8.436;2023-05-12T01:21:19;99723.03;;;12.19;100.00
40730;BME280;26418;50.070;8.436;2023-05-12T01:23:55;99705.63;;;12.11;100.00
40730;BME280;26418;50.070;8.436;2023-05-12T01:26:22;99723.03;;;12.19;100.00
40730;BME280;26418;50.070;8.436;2023-05-12T01:28:49;99719.50;;;12.19;100.00
40730;BME280;26418;50.070;8.436;2023-05-12T01:31:16;99720.16;;;12.16;100.00
40730;BME280;26418;50.070;8.436;2023-05-12T01:33:41;99724.25;;;12.13;100.00
40730;BME280;26418;50.070;8.436;2023-05-12T01:36:07;99718.38;;;12.11;100.00
40730;BME280;26418;50.070;8.436;2023-05-12T01:38:33;99715.97;;;12.09;100.00
40730;BME280;26418;50.070;8.436;2023-05-12T01:40:58;99719.16;;;12.03;100.00
40730;BME280;26418;50.070;8.436;2023-05-12T01:43:24;99724.75;;;12.06;100.00
40730;BME280;26418;50.070;8.436;2023-05-12T01:45:49;99728.56;;;12.05;100.00
40730;BME280;26418;50.070;8.436;2023-05-12T01:48:15;99725.69;;;12.02;100.00
40730;BME280;26418;50.070;8.436;2023-05-12T01:50:41;99726.47;;;12.02;100.00
40730;BME280;26418;50.070;8.436;2023-05-12T01:53:07;99737.03;;;12.04;100.00
40730;BME280;26418;50.070;8.436;2023-05-12T01:55:35;99730.28;;;12.01;100.00
40730;BME280;26418;50.070;8.436;2023-05-12T01:58:00;99732.53;;;11.99;100.00
40730;BME280;26418;50.070;8.436;2023-05-12T02:00:26;99736.84;;;12.00;100.00
40730;BME280;26418;50.070;8.436;2023-05-12T02:02:51;99735.25;;;11.99;100.00
40730;BME280;26418;50.070;8.436;2023-05-12T02:05:17;99745.59;;;11.97;100.00
40730;BME280;26418;50.070;8.436;2023-05-12T02:07:43;99746.88;;;12.00;100.00
40730;BME280;26418;50.070;8.436;2023-05-12T02:10:10;99743.06;;;12.01;100.00
40730;BME280;26418;50.070;8.436;2023-05-12T02:12:36;99751.81;;;11.98;100.00
40730;BME280;26418;50.070;8.436;2023-05-12T02:15:01;99748.50;;;12.01;100.00
40730;BME280;26418;50.070;8.436;2023-05-12T02:17:27;99745.44;;;12.02;100.00
40730;BME280;26418;50.070;8.436;2023-05-12T02:19:53;99756.78;;;12.04;100.00
40730;BME280;26418;50.070;8.436;2023-05-12T02:22:18;99766.19;;;12.07;100.00
40730;BME280;26418;50.070;8.436;2023-05-12T02:24:44;99761.25;;;12.09;100.00
40730;BME280;26418;50.070;8.436;2023-05-12T02:27:10;99751.69;;;12.03;100.00
40730;BME280;26418;50.070;8.436;2023-05-12T02:29:35;99765.09;;;12.08;100.00
40730;BME280;26418;50.070;8.436;2023-05-12T02:32:02;99753.75;;;12.06;100.00
40730;BME280;26418;50.070;8.436;2023-05-12T02:34:28;99769.88;;;12.11;100.00
40730;BME280;26418;50.070;8.436;2023-05-12T02:36:54;99757.44;;;12.10;100.00
40730;BME280;26418;50.070;8.436;2023-05-12T02:39:19;99759.50;;;12.13;100.00
40730;BME280;26418;50.070;8.436;2023-05-12T02:41:45;99755.84;;;12.09;100.00
40730;BME280;26418;50.070;8.436;2023-05-12T02:44:10;99760.66;;;12.12;100.00
40730;BME280;26418;50.070;8.436;2023-05-12T02:46:36;99759.50;;;12.13;100.00
40730;BME280;26418;50.070;8.436;2023-05-12T02:49:02;99773.38;;;12.11;100.00
40730;BME280;26418;50.070;8.436;2023-05-12T02:51:29;99770.19;;;12.09;100.00
40730;BME280;26418;50.070;8.436;2023-05-12T02:53:54;99759.34;;;12.09;100.00
40730;BME280;26418;50.070;8.436;2023-05-12T02:56:20;99764.75;;;12.09;100.00
40730;BME280;26418;50.070;8.436;2023-05-12T02:58:46;99765.91;;;12.08;100.00
40730;BME280;26418;50.070;8.436;2023-05-12T03:01:12;99769.72;;;12.07;100.00
40730;BME280;26418;50.070;8.436;2023-05-12T03:03:38;99771.63;;;12.07;100.00
40730;BME280;26418;50.070;8.436;2023-05-12T03:06:03;99773.22;;;12.08;100.00
40730;BME280;26418;50.070;8.436;2023-05-12T03:08:29;99766.19;;;12.07;100.00
40730;BME280;26418;50.070;8.436;2023-05-12T03:10:55;99765.69;;;12.05;100.00
40730;BME280;26418;50.070;8.436;2023-05-12T03:13:20;99763.81;;;12.05;100.00
40730;BME280;26418;50.070;8.436;2023-05-12T03:15:46;99776.88;;;12.03;100.00
40730;BME280;26418;50.070;8.436;2023-05-12T03:18:11;99763.63;;;12.02;100.00
40730;BME280;26418;50.070;8.436;2023-05-12T03:20:37;99779.56;;;12.03;100.00
40730;BME280;26418;50.070;8.436;2023-05-12T03:23:03;99767.94;;;12.03;100.00
40730;BME280;26418;50.070;8.436;2023-05-12T03:25:28;99777.19;;;12.02;100.00
40730;BME280;26418;50.070;8.436;2023-05-12T03:27:54;99775.28;;;12.02;100.00
40730;BME280;26418;50.070;8.436;2023-05-12T03:30:19;99777.69;;;12.04;100.00
40730;BME280;26418;50.070;8.436;2023-05-12T03:32:45;99772.38;;;11.99;100.00
40730;BME280;26418;50.070;8.436;2023-05-12T03:35:11;99769.47;;;11.95;100.00
40730;BME280;26418;50.070;8.436;2023-05-12T03:37:37;99770.13;;;11.92;100.00
40730;BME280;26418;50.070;8.436;2023-05-12T03:40:02;99774.88;;;11.86;100.00
40730;BME280;26418;50.070;8.436;2023-05-12T03:42:28;99780.16;;;11.91;100.00
40730;BME280;26418;50.070;8.436;2023-05-12T03:44:53;99776.66;;;11.91;100.00
40730;BME280;26418;50.070;8.436;2023-05-12T03:47:19;99784.13;;;11.94;100.00
40730;BME280;26418;50.070;8.436;2023-05-12T03:49:45;99782.34;;;11.89;100.00
40730;BME280;26418;50.070;8.436;2023-05-12T03:52:10;99781.69;;;11.84;100.00
40730;BME280;26418;50.070;8.436;2023-05-12T03:54:36;99777.53;;;11.77;100.00
40730;BME280;26418;50.070;8.436;2023-05-12T03:57:02;99786.91;;;11.71;100.00
40730;BME280;26418;50.070;8.436;2023-05-12T03:59:31;99765.31;;;11.57;100.00
40730;BME280;26418;50.070;8.436;2023-05-12T04:01:57;99782.25;;;11.63;100.00
40730;BME280;26418;50.070;8.436;2023-05-12T04:04:23;99778.25;;;11.60;100.00
40730;BME280;26418;50.070;8.436;2023-05-12T04:06:48;99786.66;;;11.59;100.00
40730;BME280;26418;50.070;8.436;2023-05-12T04:09:14;99785.72;;;11.55;100.00
40730;BME280;26418;50.070;8.436;2023-05-12T04:11:41;99780.28;;;11.55;100.00
40730;BME280;26418;50.070;8.436;2023-05-12T04:14:07;99781.41;;;11.54;100.00
40730;BME280;26418;50.070;8.436;2023-05-12T04:16:33;99783.50;;;11.57;100.00
40730;BME280;26418;50.070;8.436;2023-05-12T04:19:00;99781.41;;;11.54;100.00
40730;BME280;26418;50.070;8.436;2023-05-12T04:21:26;99783.97;;;11.59;100.00
40730;BME280;26418;50.070;8.436;2023-05-12T04:23:51;99789.25;;;11.64;100.00
40730;BME280;26418;50.070;8.436;2023-05-12T04:26:17;99779.84;;;11.61;100.00
40730;BME280;26418;50.070;8.436;2023-05-12T04:28:43;99801.38;;;11.67;100.00
40730;BME280;26418;50.070;8.436;2023-05-12T04:31:08;99799.66;;;11.71;100.00
40730;BME280;26418;50.070;8.436;2023-05-12T04:33:34;99800.31;;;11.76;100.00
40730;BME280;26418;50.070;8.436;2023-05-12T04:35:59;99798.16;;;11.87;100.00
40730;BME280;26418;50.070;8.436;2023-05-12T04:38:25;99793.53;;;11.96;100.00
40730;BME280;26418;50.070;8.436;2023-05-12T04:40:59;99794.41;;;12.06;100.00
40730;BME280;26418;50.070;8.436;2023-05-12T04:43:25;99792.88;;;12.22;100.00
40730;BME280;26418;50.070;8.436;2023-05-12T04:45:51;99792.91;;;12.31;100.00
40730;BME280;26418;50.070;8.436;2023-05-12T04:48:20;99796.56;;;12.35;100.00
40730;BME280;26418;50.070;8.436;2023-05-12T04:50:46;99810.31;;;12.39;100.00
40730;BME280;26418;50.070;8.436;2023-05-12T04:53:14;99791.31;;;12.39;100.00
40730;BME280;26418;50.070;8.436;2023-05-12T04:55:40;99805.91;;;12.61;100.00
40730;BME280;26418;50.070;8.436;2023-05-12T04:58:05;99805.91;;;12.69;100.00
40730;BME280;26418;50.070;8.436;2023-05-12T05:00:31;99804.94;;;12.65;100.00
40730;BME280;26418;50.070;8.436;2023-05-12T05:02:57;99807.97;;;12.64;100.00
40730;BME280;26418;50.070;8.436;2023-05-12T05:05:22;99805.44;;;12.67;100.00
40730;BME280;26418;50.070;8.436;2023-05-12T05:07:48;99816.63;;;12.74;100.00
40730;BME280;26418;50.070;8.436;2023-05-12T05:10:13;99814.38;;;12.77;100.00
40730;BME280;26418;50.070;8.436;2023-05-12T05:12:39;99825.22;;;12.77;100.00
40730;BME280;26418;50.070;8.436;2023-05-12T05:15:04;99824.59;;;12.80;100.00
40730;BME280;26418;50.070;8.436;2023-05-12T05:17:30;99823.97;;;12.83;100.00
40730;BME280;26418;50.070;8.436;2023-05-12T05:19:56;99815.34;;;12.81;100.00
40730;BME280;26418;50.070;8.436;2023-05-12T05:22:21;99823.97;;;12.83;100.00
40730;BME280;26418;50.070;8.436;2023-05-12T05:24:47;99826.34;;;12.84;100.00
40730;BME280;26418;50.070;8.436;2023-05-12T05:27:12;99822.66;;;12.80;100.00
40730;BME280;26418;50.070;8.436;2023-05-12T05:29:38;99832.91;;;12.74;100.00
40730;BME280;26418;50.070;8.436;2023-05-12T05:32:04;99829.53;;;12.69;99.79
40730;BME280;26418;50.070;8.436;2023-05-12T05:34:29;99830.31;;;12.61;100.00
40730;BME280;26418;50.070;8.436;2023-05-12T05:36:55;99840.50;;;12.55;100.00
40730;BME280;26418;50.070;8.436;2023-05-12T05:39:20;99839.72;;;12.54;100.00
40730;BME280;26418;50.070;8.436;2023-05-12T05:41:46;99841.91;;;12.35;100.00
40730;BME280;26418;50.070;8.436;2023-05-12T05:44:12;99846.00;;;12.23;100.00
40730;BME280;26418;50.070;8.436;2023-05-12T05:46:37;99844.03;;;12.15;100.00
40730;BME280;26418;50.070;8.436;2023-05-12T05:49:03;99853.16;;;12.19;100.00
40730;BME280;26418;50.070;8.436;2023-05-12T05:51:29;99856.34;;;12.21;100.00
40730;BME280;26418;50.070;8.436;2023-05-12T05:53:55;99862.31;;;12.32;100.00
40730;BME280;26418;50.070;8.436;2023-05-12T05:56:20;99864.19;;;12.32;100.00
40730;BME280;26418;50.070;8.436;2023-05-12T05:58:47;99862.59;;;12.31;100.00
40730;BME280;26418;50.070;8.436;2023-05-12T06:01:12;99863.88;;;12.24;100.00
40730;BME280;26418;50.070;8.436;2023-05-12T06:03:38;99859.88;;;12.31;100.00
40730;BME280;26418;50.070;8.436;2023-05-12T06:06:03;99872.50;;;12.35;100.00
40730;BME280;26418;50.070;8.436;2023-05-12T06:08:29;99872.84;;;12.42;100.00
40730;BME280;26418;50.070;8.436;2023-05-12T06:10:55;99877.03;;;12.49;100.00
40730;BME280;26418;50.070;8.436;2023-05-12T06:13:20;99879.59;;;12.54;100.00
40730;BME280;26418;50.070;8.436;2023-05-12T06:15:46;99883.44;;;12.53;100.00
40730;BME280;26418;50.070;8.436;2023-05-12T06:18:11;99883.91;;;12.46;100.00
40730;BME280;26418;50.070;8.436;2023-05-12T06:20:37;99879.03;;;12.34;100.00
40730;BME280;26418;50.070;8.436;2023-05-12T06:23:03;99891.03;;;12.33;100.00
40730;BME280;26418;50.070;8.436;2023-05-12T06:25:28;99891.81;;;12.34;100.00
40730;BME280;26418;50.070;8.436;2023-05-12T06:27:54;99891.06;;;12.42;100.00
40730;BME280;26418;50.070;8.436;2023-05-12T06:30:19;99891.06;;;12.42;100.00
40730;BME280;26418;50.070;8.436;2023-05-12T06:32:45;99888.19;;;12.47;100.00
40730;BME280;26418;50.070;8.436;2023-05-12T06:35:11;99894.94;;;12.58;100.00
40730;BME280;26418;50.070;8.436;2023-05-12T06:37:36;99893.22;;;12.63;100.00
40730;BME280;26418;50.070;8.436;2023-05-12T06:40:03;99898.66;;;12.71;100.00
40730;BME280;26418;50.070;8.436;2023-05-12T06:42:28;99901.38;;;12.71;99.97
40730;BME280;26418;50.070;8.436;2023-05-12T06:44:54;99893.22;;;12.80;100.00
40730;BME280;26418;50.070;8.436;2023-05-12T06:47:19;99905.41;;;12.83;99.63
40730;BME280;26418;50.070;8.436;2023-05-12T06:49:45;99896.31;;;12.87;98.36
40730;BME280;26418;50.070;8.436;2023-05-12T06:52:10;99897.09;;;12.88;97.69
40730;BME280;26418;50.070;8.436;2023-05-12T06:54:36;99903.66;;;12.96;98.60
40730;BME280;26418;50.070;8.436;2023-05-12T06:57:01;99903.97;;;12.94;97.12
40730;BME280;26418;50.070;8.436;2023-05-12T06:59:27;99908.13;;;12.92;97.08
40730;BME280;26418;50.070;8.436;2023-05-12T07:01:52;99912.91;;;12.95;97.65
40730;BME280;26418;50.070;8.436;2023-05-12T07:04:18;99905.28;;;12.97;97.84
40730;BME280;26418;50.070;8.436;2023-05-12T07:06:43;99913.41;;;12.97;97.03
40730;BME280;26418;50.070;8.436;2023-05-12T07:09:09;99908.44;;;12.99;97.55
40730;BME280;26418;50.070;8.436;2023-05-12T07:11:34;99910.53;;;13.11;97.04
40730;BME280;26418;50.070;8.436;2023-05-12T07:14:00;99907.34;;;13.17;96.96
40730;BME280;26418;50.070;8.436;2023-05-12T07:16:26;99905.44;;;13.27;96.43
40730;BME280;26418;50.070;8.436;2023-05-12T07:18:51;99906.13;;;13.41;95.22
40730;BME280;26418;50.070;8.436;2023-05-12T07:21:17;99899.75;;;13.55;94.98
40730;BME280;26418;50.070;8.436;2023-05-12T07:23:43;99896.06;;;13.59;92.55
40730;BME280;26418;50.070;8.436;2023-05-12T07:26:08;99894.91;;;13.69;91.87
40730;BME280;26418;50.070;8.436;2023-05-12T07:28:35;99897.16;;;13.67;91.31
40730;BME280;26418;50.070;8.436;2023-05-12T07:31:04;99909.28;;;13.70;91.99
40730;BME280;26418;50.070;8.436;2023-05-12T07:33:31;99904.34;;;13.72;92.43
40730;BME280;26418;50.070;8.436;2023-05-12T07:35:57;99908.97;;;13.80;92.75
40730;BME280;26418;50.070;8.436;2023-05-12T07:38:23;99900.97;;;13.83;91.73
40730;BME280;26418;50.070;8.436;2023-05-12T07:40:49;99914.22;;;13.94;91.91
40730;BME280;26418;50.070;8.436;2023-05-12T07:43:14;99909.28;;;13.96;89.98
40730;BME280;26418;50.070;8.436;2023-05-12T07:45:42;99908.50;;;13.87;89.19
40730;BME280;26418;50.070;8.436;2023-05-12T07:48:07;99909.78;;;13.80;88.79
40730;BME280;26418;50.070;8.436;2023-05-12T07:50:33;99912.16;;;13.73;89.58
40730;BME280;26418;50.070;8.436;2023-05-12T07:52:58;99912.81;;;13.79;90.74
40730;BME280;26418;50.070;8.436;2023-05-12T07:55:24;99915.19;;;13.89;90.88
40730;BME280;26418;50.070;8.436;2023-05-12T07:57:50;99908.94;;;13.97;90.44
40730;BME280;26418;50.070;8.436;2023-05-12T08:00:15;99907.00;;;14.07;88.90
40730;BME280;26418;50.070;8.436;2023-05-12T08:02:41;99915.00;;;14.03;88.28
40730;BME280;26418;50.070;8.436;2023-05-12T08:05:10;99916.44;;;14.09;89.21
40730;BME280;26418;50.070;8.436;2023-05-12T08:07:36;99916.59;;;14.04;87.76
40730;BME280;26418;50.070;8.436;2023-05-12T08:10:03;99917.53;;;14.08;87.52
40730;BME280;26418;50.070;8.436;2023-05-12T08:12:29;99915.00;;;14.03;88.05
40730;BME280;26418;50.070;8.436;2023-05-12T08:14:56;99910.06;;;14.05;88.23
40730;BME280;26418;50.070;8.436;2023-05-12T08:17:21;99912.44;;;14.07;88.05
40730;BME280;26418;50.070;8.436;2023-05-12T08:19:47;99908.59;;;14.08;88.27
40730;BME280;26418;50.070;8.436;2023-05-12T08:22:13;99912.91;;;14.09;87.50
40730;BME280;26418;50.070;8.436;2023-05-12T08:24:38;99908.13;;;14.06;88.09
40730;BME280;26418;50.070;8.436;2023-05-12T08:27:04;99910.16;;;14.18;88.62
40730;BME280;26418;50.070;8.436;2023-05-12T08:29:30;99916.19;;;14.32;87.05
40730;BME280;26418;50.070;8.436;2023-05-12T08:31:56;99912.34;;;14.42;86.12
40730;BME280;26418;50.070;8.436;2023-05-12T08:34:23;99914.66;;;14.61;86.29
40730;BME280;26418;50.070;8.436;2023-05-12T08:36:50;99920.97;;;14.83;86.16
40730;BME280;26418;50.070;8.436;2023-05-12T08:39:16;99915.09;;;15.02;85.00
40730;BME280;26418;50.070;8.436;2023-05-12T08:41:46;99912.03;;;15.03;82.72
40730;BME280;26418;50.070;8.436;2023-05-12T08:44:13;99916.75;;;15.15;83.05
40730;BME280;26418;50.070;8.436;2023-05-12T08:46:40;99909.94;;;15.30;82.82
40730;BME280;26418;50.070;8.436;2023-05-12T08:49:09;99913.09;;;15.32;80.12
40730;BME280;26418;50.070;8.436;2023-05-12T08:51:42;99912.66;;;15.30;79.28
40730;BME280;26418;50.070;8.436;2023-05-12T08:54:11;99915.38;;;15.30;79.25
40730;BME280;26418;50.070;8.436;2023-05-12T08:56:39;99907.00;;;15.35;79.47
40730;BME280;26418;50.070;8.436;2023-05-12T08:59:08;99913.38;;;15.39;79.07
40730;BME280;26418;50.070;8.436;2023-05-12T09:01:34;99919.16;;;15.38;78.72
40730;BME280;26418;50.070;8.436;2023-05-12T09:04:00;99911.66;;;15.35;78.28
40730;BME280;26418;50.070;8.436;2023-05-12T09:06:26;99914.44;;;15.47;78.48
40730;BME280;26418;50.070;8.436;2023-05-12T09:08:52;99907.09;;;15.60;77.23
40730;BME280;26418;50.070;8.436;2023-05-12T09:11:18;99906.47;;;15.76;77.41
40730;BME280;26418;50.070;8.436;2023-05-12T09:17:02;99907.47;;;15.92;75.36
40730;BME280;26418;50.070;8.436;2023-05-12T09:19:28;99908.94;;;15.90;75.16
40730;BME280;26418;50.070;8.436;2023-05-12T09:21:54;99916.38;;;15.80;75.24
40730;BME280;26418;50.070;8.436;2023-05-12T09:24:35;99906.94;;;15.78;75.93
40730;BME280;26418;50.070;8.436;2023-05-12T09:27:01;99908.41;;;15.96;75.63
40730;BME280;26418;50.070;8.436;2023-05-12T09:29:28;99912.97;;;16.05;72.83
40730;BME280;26418;50.070;8.436;2023-05-12T09:31:56;99909.47;;;16.16;72.44
40730;BME280;26418;50.070;8.436;2023-05-12T09:34:31;99901.88;;;16.34;71.48
40730;BME280;26418;50.070;8.436;2023-05-12T09:36:59;99912.34;;;16.45;70.94
40730;BME280;26418;50.070;8.436;2023-05-12T09:39:25;99903.00;;;16.58;70.41
40730;BME280;26418;50.070;8.436;2023-05-12T09:41:51;99891.63;;;16.69;69.47
40730;BME280;26418;50.070;8.436;2023-05-12T09:44:18;99898.25;;;16.80;68.50
40730;BME280;26418;50.070;8.436;2023-05-12T09:46:44;99901.06;;;16.96;69.17
40730;BME280;26418;50.070;8.436;2023-05-12T09:49:10;99898.66;;;17.19;68.08
40730;BME280;26418;50.070;8.436;2023-05-12T09:51:37;99892.88;;;17.49;67.50
40730;BME280;26418;50.070;8.436;2023-05-12T09:54:04;99895.41;;;17.70;65.85
40730;BME280;26418;50.070;8.436;2023-05-12T09:56:30;99901.28;;;17.72;65.07
40730;BME280;26418;50.070;8.436;2023-05-12T09:58:57;99904.28;;;17.67;65.52
40730;BME280;26418;50.070;8.436;2023-05-12T10:01:23;99891.41;;;17.68;64.60
40730;BME280;26418;50.070;8.436;2023-05-12T10:03:54;99911.72;;;17.67;65.24
40730;BME280;26418;50.070;8.436;2023-05-12T10:06:30;99898.91;;;17.71;64.80
40730;BME280;26418;50.070;8.436;2023-05-12T10:09:21;99901.38;;;17.76;65.10
40730;BME280;26418;50.070;8.436;2023-05-12T10:11:49;99900.41;;;17.68;65.27
40730;BME280;26418;50.070;8.436;2023-05-12T10:14:16;99896.88;;;17.68;65.23
40730;BME280;26418;50.070;8.436;2023-05-12T10:16:44;99892.59;;;17.54;64.56
40730;BME280;26418;50.070;8.436;2023-05-12T10:19:11;99893.25;;;17.35;65.51
40730;BME280;26418;50.070;8.436;2023-05-12T10:21:38;99906.84;;;17.19;67.07
40730;BME280;26418;50.070;8.436;2023-05-12T10:24:04;99902.56;;;16.93;67.21
40730;BME280;26418;50.070;8.436;2023-05-12T10:26:31;99910.88;;;16.72;67.54
40730;BME280;26418;50.070;8.436;2023-05-12T10:28:57;99887.66;;;16.41;67.74
40730;BME280;26418;50.070;8.436;2023-05-12T10:31:23;99909.94;;;16.31;69.47
40730;BME280;26418;50.070;8.436;2023-05-12T10:34:00;99909.13;;;16.06;69.36
40730;BME280;26418;50.070;8.436;2023-05-12T10:36:26;99902.75;;;15.80;70.50
40730;BME280;26418;50.070;8.436;2023-05-12T10:38:52;99888.28;;;15.67;72.39
40730;BME280;26418;50.070;8.436;2023-05-12T10:41:32;99905.38;;;15.55;73.57
40730;BME280;26418;50.070;8.436;2023-05-12T10:43:59;99891.84;;;15.47;74.02
40730;BME280;26418;50.070;8.436;2023-05-12T10:46:26;99903.75;;;15.42;74.38
40730;BME280;26418;50.070;8.436;2023-05-12T10:48:58;99898.75;;;15.44;74.49
40730;BME280;26418;50.070;8.436;2023-05-12T10:54:02;99890.75;;;15.60;74.87
40730;BME280;26418;50.070;8.436;2023-05-12T10:56:48;99887.38;;;15.76;73.97
40730;BME280;26418;50.070;8.436;2023-05-12T10:59:24;99897.75;;;15.82;73.87
40730;BME280;26418;50.070;8.436;2023-05-12T11:04:24;99906.69;;;16.04;71.99
40730;BME280;26418;50.070;8.436;2023-05-12T11:06:59;99896.00;;;15.99;72.51
40730;BME280;26418;50.070;8.436;2023-05-12T11:09:25;99905.56;;;15.93;73.85
40730;BME280;26418;50.070;8.436;2023-05-12T11:11:51;99899.13;;;15.76;75.40
40730;BME280;26418;50.070;8.436;2023-05-12T11:14:16;99891.00;;;15.67;76.02
40730;BME280;26418;50.070;8.436;2023-05-12T11:16:43;99913.94;;;15.66;77.00
40730;BME280;26418;50.070;8.436;2023-05-12T11:19:09;99912.91;;;15.59;77.09
40730;BME280;26418;50.070;8.436;2023-05-12T11:21:35;99907.25;;;15.43;76.20
40730;BME280;26418;50.070;8.436;2023-05-12T11:24:02;99906.53;;;15.33;76.46
40730;BME280;26418;50.070;8.436;2023-05-12T11:26:28;99909.81;;;15.27;77.47
40730;BME280;26418;50.070;8.436;2023-05-12T11:28:57;99900.75;;;15.14;77.56
40730;BME280;26418;50.070;8.436;2023-05-12T11:31:23;99909.31;;;15.24;77.50
40730;BME280;26418;50.070;8.436;2023-05-12T11:33:49;99921.00;;;15.25;78.43
40730;BME280;26418;50.070;8.436;2023-05-12T11:36:17;99920.69;;;15.27;78.10
40730;BME280;26418;50.070;8.436;2023-05-12T11:38:51;99919.56;;;15.28;78.28
40730;BME280;26418;50.070;8.436;2023-05-12T11:41:21;99926.72;;;15.32;78.45
40730;BME280;26418;50.070;8.436;2023-05-12T11:43:48;99928.13;;;15.38;78.61
40730;BME280;26418;50.070;8.436;2023-05-12T11:46:28;99923.13;;;15.40;78.38
40730;BME280;26418;50.070;8.436;2023-05-12T11:48:57;99931.38;;;15.53;78.30
40730;BME280;26418;50.070;8.436;2023-05-12T11:51:24;99932.59;;;15.85;77.85
40730;BME280;26418;50.070;8.436;2023-05-12T11:53:54;99932.22;;;16.33;76.74
40730;BME280;26418;50.070;8.436;2023-05-12T11:56:21;99928.84;;;16.73;74.87
40730;BME280;26418;50.070;8.436;2023-05-12T11:58:54;99931.75;;;17.30;72.74
40730;BME280;26418;50.070;8.436;2023-05-12T12:01:23;99931.44;;;17.60;71.65
40730;BME280;26418;50.070;8.436;2023-05-12T12:03:50;99930.59;;;17.72;69.79
40730;BME280;26418;50.070;8.436;2023-05-12T12:06:18;99944.84;;;17.78;68.19
40730;BME280;26418;50.070;8.436;2023-05-12T12:08:53;99933.44;;;17.75;68.72
40730;BME280;26418;50.070;8.436;2023-05-12T12:11:21;99943.47;;;17.71;69.53
40730;BME280;26418;50.070;8.436;2023-05-12T12:13:50;99937.91;;;17.68;70.71
40730;BME280;26418;50.070;8.436;2023-05-12T12:16:27;99940.25;;;17.82;70.77
40730;BME280;26418;50.070;8.436;2023-05-12T12:18:53;99940.69;;;17.96;71.04
40730;BME280;26418;50.070;8.436;2023-05-12T12:21:20;99941.66;;;18.04;69.58
40730;BME280;26418;50.070;8.436;2023-05-12T12:23:48;99942.78;;;18.03;69.38
40730;BME280;26418;50.070;8.436;2023-05-12T12:26:15;99950.13;;;18.15;69.87
40730;BME280;26418;50.070;8.436;2023-05-12T12:28:46;99960.75;;;18.16;69.01
40730;BME280;26418;50.070;8.436;2023-05-12T12:31:12;99965.22;;;18.09;67.96
40730;BME280;26418;50.070;8.436;2023-05-12T12:33:38;99956.03;;;18.01;64.53
40730;BME280;26418;50.070;8.436;2023-05-12T12:36:04;99960.03;;;17.91;65.11
40730;BME280;26418;50.070;8.436;2023-05-12T12:38:30;99955.28;;;17.88;64.02
40730;BME280;26418;50.070;8.436;2023-05-12T12:40:55;99957.47;;;17.82;64.62
40730;BME280;26418;50.070;8.436;2023-05-12T12:43:21;99963.63;;;17.79;65.04
40730;BME280;26418;50.070;8.436;2023-05-12T12:45:47;99968.31;;;17.79;65.47
40730;BME280;26418;50.070;8.436;2023-05-12T12:48:12;99961.81;;;17.71;65.62
40730;BME280;26418;50.070;8.436;2023-05-12T12:50:38;99963.72;;;17.54;66.24
40730;BME280;26418;50.070;8.436;2023-05-12T12:53:04;99966.47;;;17.42;67.55
40730;BME280;26418;50.070;8.436;2023-05-12T12:55:29;99960.47;;;17.36;68.07
40730;BME280;26418;50.070;8.436;2023-05-12T12:57:56;99977.19;;;17.35;69.18
40730;BME280;26418;50.070;8.436;2023-05-12T13:00:22;99962.97;;;17.29;70.17